Time,TemperatureF,DewpointF,PressureIn,WindDirection,WindDirectionDegrees,WindSpeedMPH,WindSpeedGustMPH,Humidity,HourlyPrecipIn,Conditions,Clouds,dailyrainin,SolarRadiationWatts/m^2,SoftwareType,DateUTC
2013-08-18 00:00:00,82.4,77.0,30.06,East,92,2.0,5.0,83,0.00,,,0.04,0,weatherlink.com 1.10,2013-08-18 04:00:00,
2013-08-18 00:15:00,82.1,77.0,30.06,East,81,1.0,7.0,83,0.00,,,0.00,0,weatherlink.com 1.10,2013-08-18 04:15:00,
2013-08-18 00:30:00,82.0,76.0,30.05,ESE,108,1.0,6.0,83,0.00,,,0.00,0,weatherlink.com 1.10,2013-08-18 04:30:00,
2013-08-18 00:45:00,82.1,77.0,30.05,ESE,115,2.0,4.0,83,0.00,,,0.00,0,weatherlink.com 1.10,2013-08-18 04:45:00,
2013-08-18 01:00:00,82.0,76.0,30.05,East,98,3.0,6.0,83,0.00,,,0.00,0,weatherlink.com 1.10,2013-08-18 05:00:00,
2013-08-18 01:15:00,82.2,76.0,30.05,ESE,110,2.0,6.0,82,0.00,,,0.00,0,weatherlink.com 1.10,2013-08-18 05:15:00,
2013-08-18 01:30:00,82.3,76.0,30.05,East,93,1.0,9.0,82,0.00,,,0.00,0,weatherlink.com 1.10,2013-08-18 05:30:00,
2013-08-18 01:45:00,82.2,77.0,30.05,ESE,115,4.0,5.0,83,0.00,,,0.00,0,weatherlink.com 1.10,2013-08-18 05:45:00,
2013-08-18 02:00:00,82.4,77.0,30.04,East,92,4.0,7.0,83,0.00,,,0.00,0,weatherlink.com 1.10,2013-08-18 06:00:00,
2013-08-18 02:15:00,82.5,77.0,30.04,ESE,120,1.0,6.0,83,0.00,,,0.00,0,weatherlink.com 1.10,2013-08-18 06:15:00,
2013-08-18 02:30:00,82.3,76.0,30.03,ESE,123,3.0,7.0,82,0.00,,,0.00,0,weatherlink.com 1.10,2013-08-18 06:30:00,
2013-08-18 02:45:00,82.2,76.0,30.02,East,92,1.0,5.0,82,0.00,,,0.00,0,weatherlink.com 1.10,2013-08-18 06:45:00,
2013-08-18 03:00:00,82.2,76.0,30.02,ESE,105,2.0,7.0,82,0.00,,,0.00,0,weatherlink.com 1.10,2013-08-18 07:00:00,
2013-08-18 03:15:00,82.1,76.0,30.01,ESE,117,2.0,7.0,82,0.00,,,0.00,0,weatherlink.com 1.10,2013-08-18 07:15:00,
2013-08-18 03:30:00,82.0,76.0,30.01,ESE,103,1.0,7.0,82,0.00,,,0.00,0,weatherlink.com 1.10,2013-08-18 07:30:00,
2013-08-18 03:45:00,82.1,76.0,30.01,ESE,102,3.0,6.0,81,0.00,,,0.00,0,weatherlink.com 1.10,2013-08-18 07:45:00,
2013-08-18 04:00:00,82.1,76.0,30.01,East,97,2.0,6.0,81,0.00,,,0.00,0,weatherlink.com 1.10,2013-08-18 08:00:00,
2013-08-18 04:15:00,82.0,76.0,30.00,ESE,111,0.0,4.0,81,0.00,,,0.00,0,weatherlink.com 1.10,2013-08-18 08:15:00,
2013-08-18 04:30:00,82.1,76.0,30.00,East,90,2.0,4.0,81,0.00,,,0.00,0,weatherlink.com 1.10,2013-08-18 08:30:00,
2013-08-18 04:45:00,81.9,76.0,30.00,ESE,114,1.0,4.0,82,0.00,,,0.00,0,weatherlink.com 1.10,2013-08-18 08:45:00,
2013-08-18 05:00:00,81.8,76.0,30.00,ESE,123,1.0,3.0,82,0.00,,,0.00,0,weatherlink.com 1.10,2013-08-18 09:00:00,
2013-08-18 05:15:00,81.9,76.0,30.00,ESE,105,2.0,4.0,83,0.00,,,0.00,0,weatherlink.com 1.10,2013-08-18 09:15:00,
2013-08-18 05:30:00,82.0,76.0,30.00,ESE,113,6.0,6.0,83,0.00,,,0.00,0,weatherlink.com 1.10,2013-08-18 09:30:00,
2013-08-18 05:45:00,81.7,76.0,30.00,SE,135,2.0,5.0,83,0.00,,,0.00,0,weatherlink.com 1.10,2013-08-18 09:45:00,
2013-08-18 06:00:00,81.3,75.0,30.01,East,86,0.0,4.0,82,0.00,,,0.00,0,weatherlink.com 1.10,2013-08-18 10:00:00,
2013-08-18 06:15:00,81.3,75.0,30.01,ESE,102,3.0,4.0,82,0.00,,,0.00,0,weatherlink.com 1.10,2013-08-18 10:15:00,
2013-08-18 06:30:00,81.5,76.0,30.01,ESE,105,2.0,4.0,82,0.00,,,0.00,0,weatherlink.com 1.10,2013-08-18 10:30:00,
2013-08-18 06:45:00,81.7,76.0,30.01,East,89,5.0,6.0,82,0.00,,,0.00,0,weatherlink.com 1.10,2013-08-18 10:45:00,
2013-08-18 07:00:00,81.9,76.0,30.01,ESE,113,3.0,8.0,81,0.00,,,0.00,7,weatherlink.com 1.10,2013-08-18 11:00:00,
2013-08-18 07:15:00,82.2,76.0,30.02,ENE,65,3.0,10.0,81,0.00,,,0.00,32,weatherlink.com 1.10,2013-08-18 11:15:00,
2013-08-18 07:30:00,82.3,76.0,30.02,ESE,107,6.0,8.0,81,0.00,,,0.00,26,weatherlink.com 1.10,2013-08-18 11:30:00,
2013-08-18 07:45:00,82.7,76.0,30.02,ESE,105,7.0,9.0,81,0.00,,,0.00,116,weatherlink.com 1.10,2013-08-18 11:45:00,
2013-08-18 08:00:00,83.5,76.0,30.03,East,82,7.0,8.0,79,0.00,,,0.00,132,weatherlink.com 1.10,2013-08-18 12:00:00,
2013-08-18 08:15:00,83.6,77.0,30.03,ESE,107,4.0,9.0,79,0.00,,,0.00,236,weatherlink.com 1.10,2013-08-18 12:15:00,
2013-08-18 08:31:00,84.1,77.0,30.04,SE,142,6.0,8.0,78,0.00,,,0.00,292,weatherlink.com 1.10,2013-08-18 12:31:00,
2013-08-18 08:46:00,84.3,77.0,30.04,SE,129,4.0,9.0,78,0.00,,,0.00,339,weatherlink.com 1.10,2013-08-18 12:46:00,
2013-08-18 09:01:00,84.9,77.0,30.05,ESE,117,4.0,8.0,77,0.00,,,0.00,413,weatherlink.com 1.10,2013-08-18 13:01:00,
2013-08-18 09:16:00,85.1,77.0,30.05,SE,142,8.0,11.0,76,0.00,,,0.00,297,weatherlink.com 1.10,2013-08-18 13:16:00,
2013-08-18 09:31:00,85.2,77.0,30.05,SE,138,1.0,10.0,77,0.00,,,0.00,566,weatherlink.com 1.10,2013-08-18 13:31:00,
2013-08-18 09:46:00,85.0,77.0,30.05,ESE,108,3.0,9.0,77,0.00,,,0.00,179,weatherlink.com 1.10,2013-08-18 13:46:00,
2013-08-18 10:01:00,86.0,78.0,30.06,ESE,109,4.0,10.0,77,0.00,,,0.00,610,weatherlink.com 1.10,2013-08-18 14:01:00,
2013-08-18 10:16:00,85.6,77.0,30.06,East,96,9.0,10.0,75,0.00,,,0.00,671,weatherlink.com 1.10,2013-08-18 14:16:00,
2013-08-18 10:31:00,86.5,78.0,30.06,ESE,109,8.0,8.0,76,0.00,,,0.00,724,weatherlink.com 1.10,2013-08-18 14:31:00,
2013-08-18 10:46:00,86.8,78.0,30.06,ESE,123,4.0,10.0,75,0.00,,,0.00,742,weatherlink.com 1.10,2013-08-18 14:46:00,
2013-08-18 11:01:00,87.1,79.0,30.07,SE,140,8.0,10.0,76,0.00,,,0.00,861,weatherlink.com 1.10,2013-08-18 15:01:00,
2013-08-18 11:16:00,86.7,78.0,30.07,ESE,123,4.0,12.0,74,0.00,,,0.00,861,weatherlink.com 1.10,2013-08-18 15:16:00,
2013-08-18 11:31:00,86.5,78.0,30.07,East,92,8.0,11.0,75,0.00,,,0.00,872,weatherlink.com 1.10,2013-08-18 15:31:00,
2013-08-18 11:46:00,86.5,78.0,30.07,East,92,4.0,12.0,76,0.00,,,0.00,923,weatherlink.com 1.10,2013-08-18 15:46:00,
2013-08-18 12:01:00,87.6,78.0,30.06,ENE,61,8.0,11.0,73,0.00,,,0.00,921,weatherlink.com 1.10,2013-08-18 16:01:00,
2013-08-18 12:16:00,87.4,78.0,30.06,SE,126,7.0,11.0,73,0.00,,,0.00,1028,weatherlink.com 1.10,2013-08-18 16:16:00,
2013-08-18 12:31:00,85.9,78.0,30.06,ESE,120,2.0,10.0,76,0.00,,,0.00,396,weatherlink.com 1.10,2013-08-18 16:31:00,
2013-08-18 12:46:00,87.2,78.0,30.06,SE,130,8.0,12.0,74,0.00,,,0.00,995,weatherlink.com 1.10,2013-08-18 16:46:00,
2013-08-18 13:01:00,87.4,78.0,30.05,East,82,7.0,12.0,74,0.00,,,0.00,1125,weatherlink.com 1.10,2013-08-18 17:01:00,
2013-08-18 13:16:00,87.4,79.0,30.05,East,96,9.0,14.0,75,0.00,,,0.00,976,weatherlink.com 1.10,2013-08-18 17:16:00,
2013-08-18 13:31:00,87.3,76.0,30.05,ENE,71,6.0,13.0,70,0.00,,,0.00,933,weatherlink.com 1.10,2013-08-18 17:31:00,
2013-08-18 13:46:00,87.4,78.0,30.05,ESE,107,9.0,13.0,73,0.00,,,0.00,969,weatherlink.com 1.10,2013-08-18 17:46:00,
2013-08-18 14:01:00,87.4,79.0,30.04,ESE,113,6.0,13.0,75,0.00,,,0.00,981,weatherlink.com 1.10,2013-08-18 18:01:00,
2013-08-18 14:16:00,87.8,79.0,30.04,ESE,102,6.0,13.0,75,0.00,,,0.00,976,weatherlink.com 1.10,2013-08-18 18:16:00,
2013-08-18 14:31:00,86.9,79.0,30.04,ENE,74,4.0,12.0,76,0.00,,,0.00,991,weatherlink.com 1.10,2013-08-18 18:31:00,
2013-08-18 14:46:00,86.9,79.0,30.03,ESE,119,5.0,12.0,76,0.00,,,0.00,364,weatherlink.com 1.10,2013-08-18 18:46:00,
2013-08-18 15:01:00,87.7,79.0,30.02,East,97,7.0,12.0,75,0.00,,,0.00,1046,weatherlink.com 1.10,2013-08-18 19:01:00,
2013-08-18 15:16:00,84.2,77.0,30.02,ESE,111,6.0,12.0,80,0.01,,,0.01,207,weatherlink.com 1.10,2013-08-18 19:16:00,
2013-08-18 15:31:00,83.8,77.0,30.02,ESE,110,6.0,9.0,80,0.01,,,0.01,721,weatherlink.com 1.10,2013-08-18 19:31:00,
2013-08-18 15:46:00,85.2,77.0,30.01,East,84,7.0,12.0,76,0.01,,,0.01,788,weatherlink.com 1.10,2013-08-18 19:46:00,
2013-08-18 16:01:00,86.4,77.0,30.01,East,82,5.0,11.0,73,0.01,,,0.01,693,weatherlink.com 1.10,2013-08-18 20:01:00,
2013-08-18 16:16:00,86.1,77.0,30.01,SE,129,3.0,11.0,75,0.00,,,0.01,671,weatherlink.com 1.10,2013-08-18 20:16:00,
2013-08-18 16:31:00,86.8,78.0,30.00,ESE,109,7.0,11.0,74,0.00,,,0.01,633,weatherlink.com 1.10,2013-08-18 20:31:00,
2013-08-18 16:46:00,86.6,77.0,30.00,East,84,7.0,11.0,74,0.00,,,0.01,594,weatherlink.com 1.10,2013-08-18 20:46:00,
2013-08-18 17:01:00,86.5,78.0,29.99,East,84,4.0,11.0,76,0.00,,,0.01,550,weatherlink.com 1.10,2013-08-18 21:01:00,
2013-08-18 17:16:00,86.6,79.0,29.99,East,89,4.0,10.0,77,0.00,,,0.01,513,weatherlink.com 1.10,2013-08-18 21:16:00,
2013-08-18 17:31:00,86.6,79.0,29.99,ESE,122,5.0,13.0,77,0.00,,,0.01,165,weatherlink.com 1.10,2013-08-18 21:31:00,
2013-08-18 17:46:00,86.4,78.0,29.98,East,101,8.0,13.0,75,0.00,,,0.01,229,weatherlink.com 1.10,2013-08-18 21:46:00,
2013-08-18 18:01:00,86.1,78.0,29.99,SSE,148,4.0,11.0,77,0.00,,,0.01,320,weatherlink.com 1.10,2013-08-18 22:01:00,
2013-08-18 18:16:00,85.7,78.0,29.99,ESE,115,7.0,12.0,78,0.00,,,0.01,70,weatherlink.com 1.10,2013-08-18 22:16:00,
2013-08-18 18:31:00,85.1,78.0,29.99,SE,126,3.0,11.0,78,0.00,,,0.01,49,weatherlink.com 1.10,2013-08-18 22:31:00,
2013-08-18 18:46:00,85.0,77.0,30.00,SE,139,4.0,9.0,78,0.00,,,0.01,90,weatherlink.com 1.10,2013-08-18 22:46:00,
2013-08-18 19:01:00,84.9,77.0,30.00,East,88,5.0,10.0,78,0.00,,,0.01,26,weatherlink.com 1.10,2013-08-18 23:01:00,
2013-08-18 19:16:00,84.7,78.0,30.00,ESE,107,3.0,7.0,80,0.00,,,0.01,19,weatherlink.com 1.10,2013-08-18 23:16:00,
2013-08-18 19:31:00,84.3,78.0,30.00,SE,125,3.0,7.0,80,0.00,,,0.01,14,weatherlink.com 1.10,2013-08-18 23:31:00,
2013-08-18 19:46:00,84.2,77.0,30.00,ESE,111,0.0,4.0,80,0.00,,,0.01,0,weatherlink.com 1.10,2013-08-18 23:46:00,
2013-08-18 20:02:00,84.0,77.0,30.01,SE,125,2.0,6.0,80,0.00,,,0.01,0,weatherlink.com 1.10,2013-08-19 00:02:00,
2013-08-18 20:17:00,83.9,77.0,30.01,ESE,117,3.0,6.0,80,0.00,,,0.01,0,weatherlink.com 1.10,2013-08-19 00:17:00,
2013-08-18 20:32:00,84.0,78.0,30.02,ESE,117,4.0,6.0,81,0.00,,,0.01,0,weatherlink.com 1.10,2013-08-19 00:32:00,
2013-08-18 20:47:00,84.1,78.0,30.03,East,98,4.0,6.0,81,0.00,,,0.01,0,weatherlink.com 1.10,2013-08-19 00:47:00,
2013-08-18 21:02:00,83.8,77.0,30.03,ESE,110,3.0,8.0,81,0.00,,,0.01,0,weatherlink.com 1.10,2013-08-19 01:02:00,
2013-08-18 21:17:00,83.8,77.0,30.04,ESE,106,3.0,8.0,80,0.00,,,0.01,0,weatherlink.com 1.10,2013-08-19 01:17:00,
2013-08-18 21:32:00,83.8,77.0,30.04,East,86,2.0,7.0,81,0.00,,,0.01,0,weatherlink.com 1.10,2013-08-19 01:32:00,
2013-08-18 21:47:00,83.6,77.0,30.05,ESE,123,4.0,5.0,81,0.00,,,0.01,0,weatherlink.com 1.10,2013-08-19 01:47:00,
2013-08-18 22:02:00,83.6,77.0,30.05,ESE,119,4.0,6.0,81,0.00,,,0.01,0,weatherlink.com 1.10,2013-08-19 02:02:00,
2013-08-18 22:17:00,83.6,78.0,30.06,East,88,2.0,6.0,82,0.00,,,0.01,0,weatherlink.com 1.10,2013-08-19 02:17:00,
2013-08-18 22:32:00,83.6,77.0,30.06,East,98,3.0,8.0,81,0.00,,,0.01,0,weatherlink.com 1.10,2013-08-19 02:32:00,
2013-08-18 22:47:00,83.5,78.0,30.06,ESE,111,4.0,6.0,82,0.00,,,0.01,0,weatherlink.com 1.10,2013-08-19 02:47:00,
2013-08-18 23:02:00,83.3,77.0,30.06,East,93,4.0,9.0,82,0.00,,,0.01,0,weatherlink.com 1.10,2013-08-19 03:02:00,
2013-08-18 23:17:00,83.4,77.0,30.06,ESE,105,2.0,7.0,82,0.00,,,0.01,0,weatherlink.com 1.10,2013-08-19 03:17:00,
2013-08-18 23:32:00,83.1,78.0,30.06,SE,132,3.0,4.0,83,0.00,,,0.01,0,weatherlink.com 1.10,2013-08-19 03:32:00,
2013-08-18 23:47:00,82.9,77.0,30.07,ESE,113,2.0,7.0,83,0.00,,,0.01,0,weatherlink.com 1.10,2013-08-19 03:47:00,